Time;durP1;ratioP1;P1;durP2;ratioP2;P2;SDS_P1;SDS_P2;PMS_P1;PMS_P2;Temp;Humidity;BMP_temperature;BMP_pressure;BME280_temperature;BME280_humidity;BME280_pressure;Samples;Min_cycle;Max_cycle;Signal;HPM_P1;HPM_P2
2022/06/27 00:00:05;;;;;;;4.68;1.70;;;;;;;18.95;67.20;101612.72;5057093;27;97318;-36
2022/06/27 00:02:30;;;;;;;2.03;1.30;;;;;;;18.97;67.24;101618.91;5055786;27;96920;-36
2022/06/27 00:04:55;;;;;;;2.13;1.48;;;;;;;18.95;67.35;101612.72;5056409;27;96839;-35
2022/06/27 00:07:21;;;;;;;3.15;1.50;;;;;;;18.99;67.36;101622.41;5057144;27;97914;-36
2022/06/27 00:09:46;;;;;;;2.70;1.50;;;;;;;18.94;67.69;101621.94;5056820;27;99518;-35
2022/06/27 00:12:11;;;;;;;3.33;1.58;;;;;;;18.97;67.76;101629.91;5056756;27;96520;-35
2022/06/27 00:14:37;;;;;;;2.92;1.80;;;;;;;18.92;67.92;101626.69;5056714;27;96825;-36
2022/06/27 00:17:03;;;;;;;4.25;1.58;;;;;;;18.88;68.00;101625.22;5056823;27;97926;-36
2022/06/27 00:19:29;;;;;;;1.95;1.30;;;;;;;18.85;68.00;101618.13;5055229;27;101810;-36
2022/06/27 00:21:55;;;;;;;2.78;1.38;;;;;;;18.91;67.90;101622.19;5056806;27;96420;-35
2022/06/27 00:24:20;;;;;;;4.93;1.52;;;;;;;18.87;67.79;101620.72;5055568;27;96883;-36
2022/06/27 00:26:45;;;;;;;2.55;1.42;;;;;;;18.89;68.29;101629.69;5056737;27;97523;-35
2022/06/27 00:29:11;;;;;;;4.28;1.75;;;;;;;18.83;68.28;101619.22;5056889;27;97310;-36
2022/06/27 00:31:36;;;;;;;3.00;1.63;;;;;;;18.86;67.81;101627.22;5057027;27;96737;-35
2022/06/27 00:34:02;;;;;;;3.30;1.70;;;;;;;18.87;68.29;101631.69;5056830;27;96770;-36
2022/06/27 00:36:27;;;;;;;3.42;1.35;;;;;;;18.82;68.35;101634.81;5055877;27;97871;-35
2022/06/27 00:38:53;;;;;;;2.67;1.77;;;;;;;18.81;68.15;101645.94;5056642;27;97750;-35
2022/06/27 00:41:18;;;;;;;2.10;1.60;;;;;;;18.80;68.12;101647.78;5056557;27;96829;-35
2022/06/27 00:43:45;;;;;;;1.45;1.23;;;;;;;18.81;68.46;101657.78;5057128;27;96756;-35
2022/06/27 00:46:11;;;;;;;3.42;1.63;;;;;;;18.81;68.99;101656.94;5054715;27;101091;-36
2022/06/27 00:48:36;;;;;;;2.45;1.65;;;;;;;18.79;67.97;101662.53;5054547;27;100911;-35
2022/06/27 00:51:03;;;;;;;2.90;1.90;;;;;;;18.77;67.79;101655.44;5055962;27;96729;-35
2022/06/27 00:53:29;;;;;;;4.90;1.83;;;;;;;18.78;68.03;101658.06;5055506;27;96837;-36
2022/06/27 00:55:55;;;;;;;2.03;1.42;;;;;;;18.73;68.29;101651.16;5054679;27;101157;-36
2022/06/27 00:58:20;;;;;;;6.32;1.70;;;;;;;18.79;68.44;101658.94;5056141;27;98083;-36
2022/06/27 01:00:46;;;;;;;2.22;1.60;;;;;;;18.72;68.84;101649.44;5055952;27;96697;-36
2022/06/27 01:03:11;;;;;;;2.60;1.65;;;;;;;18.75;68.76;101650.03;5056462;27;96497;-36
2022/06/27 01:05:36;;;;;;;3.40;1.98;;;;;;;18.73;69.00;101653.91;5056208;27;97890;-36
2022/06/27 01:08:02;;;;;;;5.53;1.88;;;;;;;18.70;68.64;101646.78;5055919;27;97737;-36
2022/06/27 01:10:27;;;;;;;5.65;1.77;;;;;;;18.72;68.50;101642.06;5056050;27;96719;-35
2022/06/27 01:12:53;;;;;;;7.07;1.58;;;;;;;18.66;68.01;101634.31;5056397;27;96804;-35
2022/06/27 01:15:18;;;;;;;3.03;1.67;;;;;;;18.65;68.80;101627.97;5055850;27;98013;-35
2022/06/27 01:17:45;;;;;;;2.88;1.80;;;;;;;18.66;68.74;101632.47;5056195;27;97728;-35
2022/06/27 01:20:11;;;;;;;3.08;1.80;;;;;;;18.67;68.89;101639.69;5054657;27;96800;-36
2022/06/27 01:22:36;;;;;;;4.72;1.95;;;;;;;18.66;69.14;101645.28;5056126;27;96754;-36
2022/06/27 01:25:02;;;;;;;2.78;1.75;;;;;;;18.59;68.68;101636.72;5055767;27;97388;-36
2022/06/27 01:27:27;;;;;;;2.67;1.83;;;;;;;18.58;69.27;101636.84;5055771;27;97366;-36
2022/06/27 01:29:52;;;;;;;4.88;1.92;;;;;;;18.64;69.34;101653.69;5055438;27;96542;-35
2022/06/27 01:32:18;;;;;;;5.55;1.95;;;;;;;18.61;68.92;101650.31;5055855;27;96805;-35
2022/06/27 01:34:43;;;;;;;4.45;1.85;;;;;;;18.58;69.01;101645.94;5055573;27;98064;-36
2022/06/27 01:37:08;;;;;;;5.03;2.15;;;;;;;18.60;69.38;101646.69;5055464;27;97603;-35
2022/06/27 01:39:34;;;;;;;6.72;2.65;;;;;;;18.63;69.29;101651.06;5055994;27;96454;-35
2022/06/27 01:42:01;;;;;;;2.85;1.80;;;;;;;18.55;69.31;101643.47;5056180;27;96807;-36
2022/06/27 01:44:32;;;;;;;3.25;1.90;;;;;;;18.58;69.38;101642.34;5053722;27;102036;-35
2022/06/27 01:47:08;;;;;;;3.58;1.98;;;;;;;18.54;69.66;101638.09;5053720;27;100951;-35
2022/06/27 01:49:34;;;;;;;2.90;1.80;;;;;;;18.52;69.04;101638.25;5053687;27;96876;-36
2022/06/27 01:52:01;;;;;;;2.75;1.80;;;;;;;18.56;69.54;101650.69;5054048;27;96944;-35
2022/06/27 01:54:27;;;;;;;3.17;1.75;;;;;;;18.53;69.15;101644.59;5053742;27;101089;-36
2022/06/27 01:56:53;;;;;;;3.28;1.75;;;;;;;18.48;69.40;101633.13;5053490;27;100881;-35
2022/06/27 01:59:24;;;;;;;4.95;2.00;;;;;;;18.48;69.24;101624.91;5054177;27;96858;-36
2022/06/27 02:01:50;;;;;;;3.03;1.83;;;;;;;18.52;68.69;101621.78;5054055;27;97507;-36
2022/06/27 02:04:16;;;;;;;5.07;2.15;;;;;;;18.47;69.63;101602.06;5055229;27;98295;-35
2022/06/27 02:06:43;;;;;;;3.33;2.08;;;;;;;18.50;69.12;101606.44;5055839;27;97303;-36
2022/06/27 02:09:12;;;;;;;2.83;1.75;;;;;;;18.50;69.48;101606.44;5053790;27;96558;-36
2022/06/27 02:11:39;;;;;;;4.43;1.70;;;;;;;18.48;69.33;101608.44;5053978;27;96855;-35
2022/06/27 02:14:05;;;;;;;2.65;1.80;;;;;;;18.41;69.47;101606.19;5053090;27;101127;-35
2022/06/27 02:16:31;;;;;;;5.30;2.10;;;;;;;18.44;69.14;101605.91;5053398;27;101015;-35
2022/06/27 02:18:57;;;;;;;4.60;2.00;;;;;;;18.40;69.76;101609.03;5053825;27;96578;-35
2022/06/27 02:21:25;;;;;;;2.55;1.75;;;;;;;18.39;69.69;101621.91;5055376;27;96781;-35
2022/06/27 02:23:52;;;;;;;4.97;2.33;;;;;;;18.27;69.56;101603.72;5053154;27;101253;-36
2022/06/27 02:26:23;;;;;;;4.95;2.35;;;;;;;18.31;70.04;101607.09;5053348;27;101250;-36
2022/06/27 02:28:50;;;;;;;4.77;1.87;;;;;;;18.22;69.46;101598.59;5053881;27;96664;-36
2022/06/27 02:31:15;;;;;;;4.85;1.90;;;;;;;18.25;69.84;101591.97;5053997;27;96832;-35
2022/06/27 02:33:44;;;;;;;5.00;2.05;;;;;;;18.24;69.29;101599.34;5054673;27;97994;-35
2022/06/27 02:36:13;;;;;;;2.67;1.67;;;;;;;18.28;69.36;101608.19;5053125;27;101249;-35
2022/06/27 02:38:40;;;;;;;8.00;1.92;;;;;;;18.29;69.82;101614.56;5052970;27;96681;-36
2022/06/27 02:41:09;;;;;;;6.30;1.83;;;;;;;18.25;69.67;101594.72;5055055;27;96828;-35
2022/06/27 02:43:36;;;;;;;2.90;1.63;;;;;;;18.23;69.77;101603.09;5056828;27;101548;-35
2022/06/27 02:46:02;;;;;;;2.47;1.52;;;;;;;18.16;70.08;101592.75;5056692;27;99770;-36
2022/06/27 02:48:31;;;;;;;2.40;1.50;;;;;;;18.15;69.81;101601.97;5058444;27;96505;-36
2022/06/27 02:50:58;;;;;;;3.28;1.98;;;;;;;18.17;69.87;101599.97;5056394;27;96844;-36
2022/06/27 02:53:29;;;;;;;3.97;1.90;;;;;;;18.16;70.36;101598.22;5056654;27;100161;-36
2022/06/27 02:55:58;;;;;;;5.63;1.75;;;;;;;18.13;69.96;101598.47;5058807;27;97277;-35
2022/06/27 02:58:36;;;;;;;2.85;1.73;;;;;;;18.12;69.84;101591.28;5058260;27;96665;-36
2022/06/27 03:01:03;;;;;;;5.30;1.77;;;;;;;18.07;70.21;101580.66;5057114;27;96653;-35
2022/06/27 03:03:33;;;;;;;3.42;1.77;;;;;;;18.06;69.86;101581.66;5055813;27;100781;-35
2022/06/27 03:06:10;;;;;;;2.70;1.52;;;;;;;18.06;70.10;101578.91;5056632;27;100668;-36
2022/06/27 03:08:37;;;;;;;3.40;1.85;;;;;;;18.03;69.95;101562.72;5058204;27;96526;-35
2022/06/27 03:11:02;;;;;;;3.88;1.85;;;;;;;18.02;69.93;101564.59;5056860;27;96826;-35
2022/06/27 03:13:27;;;;;;;2.35;1.63;;;;;;;18.00;70.49;101560.25;5057860;27;97972;-35
2022/06/27 03:15:53;;;;;;;7.63;2.10;;;;;;;17.95;70.47;101571.56;5057492;27;98974;-35
2022/06/27 03:18:18;;;;;;;3.45;1.50;;;;;;;17.87;71.25;101554.00;5058014;27;96469;-36
2022/06/27 03:20:43;;;;;;;2.10;1.35;;;;;;;17.86;70.75;101571.44;5058639;27;96600;-36
2022/06/27 03:23:09;;;;;;;4.38;1.90;;;;;;;17.84;70.87;101571.56;5057779;27;97589;-36
2022/06/27 03:25:34;;;;;;;3.25;1.92;;;;;;;17.81;71.14;101572.69;5057508;27;99120;-35
2022/06/27 03:28:00;;;;;;;5.72;2.00;;;;;;;17.74;71.46;101568.66;5057385;27;96456;-35
2022/06/27 03:30:25;;;;;;;1.75;1.52;;;;;;;17.74;71.00;101565.91;5057971;27;96725;-35
2022/06/27 03:32:50;;;;;;;4.05;1.88;;;;;;;17.73;71.95;101571.50;5057483;27;97904;-35
2022/06/27 03:35:16;;;;;;;2.55;1.45;;;;;;;17.70;71.10;101580.00;5057589;27;97751;-36
2022/06/27 03:37:41;;;;;;;2.63;1.58;;;;;;;17.68;71.67;101582.84;5057854;27;96618;-35
2022/06/27 03:40:08;;;;;;;2.25;1.60;;;;;;;17.70;71.57;101577.25;5057813;27;96790;-35
2022/06/27 03:42:33;;;;;;;3.88;1.83;;;;;;;17.68;71.56;101571.88;5055887;27;101316;-35
2022/06/27 03:44:59;;;;;;;3.83;1.83;;;;;;;17.70;71.97;101563.56;5057796;27;97325;-35
2022/06/27 03:47:24;;;;;;;3.17;1.48;;;;;;;17.69;72.32;101559.09;5057315;27;96862;-35
2022/06/27 03:50:02;;;;;;;4.28;2.03;;;;;;;17.67;71.35;101561.94;5057352;27;96829;-35
2022/06/27 03:52:28;;;;;;;2.33;1.60;;;;;;;17.68;71.54;101571.00;5056339;27;99067;-35
2022/06/27 03:54:54;;;;;;;5.72;1.77;;;;;;;17.66;71.59;101557.44;5055884;27;100885;-35
2022/06/27 03:57:19;;;;;;;2.15;1.70;;;;;;;17.62;71.61;101551.34;5057506;27;96731;-35
2022/06/27 03:59:45;;;;;;;2.55;1.35;;;;;;;17.63;72.01;101555.81;5057261;27;96835;-35
2022/06/27 04:02:10;;;;;;;8.10;1.50;;;;;;;17.65;70.95;101552.09;5056895;27;99343;-35
2022/06/27 04:04:35;;;;;;;4.90;2.33;;;;;;;17.64;71.31;101559.44;5057125;27;97833;-35
2022/06/27 04:07:04;;;;;;;2.40;1.55;;;;;;;17.64;71.24;101562.19;5057390;27;96659;-35
2022/06/27 04:09:30;;;;;;;2.58;1.52;;;;;;;17.71;71.38;101571.66;5057513;27;96857;-35
2022/06/27 04:11:55;;;;;;;3.75;1.55;;;;;;;17.69;71.47;101562.69;5055510;27;100867;-36
2022/06/27 04:14:21;;;;;;;2.85;1.35;;;;;;;17.74;71.17;101557.69;5056758;27;97048;-35
2022/06/27 04:16:46;;;;;;;1.75;1.08;;;;;;;17.68;71.57;101549.97;5056646;27;96515;-35
2022/06/27 04:19:12;;;;;;;3.35;1.80;;;;;;;17.75;71.63;101575.88;5057034;27;96798;-35
2022/06/27 04:21:38;;;;;;;3.40;1.52;;;;;;;17.67;72.63;101570.16;5056546;27;99232;-35
2022/06/27 04:24:04;;;;;;;2.92;1.45;;;;;;;17.70;71.78;101569.91;5056416;27;99351;-35
2022/06/27 04:26:29;;;;;;;4.50;1.83;;;;;;;17.74;71.45;101559.56;5055373;27;97633;-35
2022/06/27 04:28:56;;;;;;;6.07;2.10;;;;;;;17.75;71.13;101553.09;5056734;27;96751;-35
2022/06/27 04:31:22;;;;;;;3.88;1.85;;;;;;;17.75;71.45;101529.28;5055226;27;100949;-36
2022/06/27 04:33:48;;;;;;;2.90;1.80;;;;;;;17.81;71.00;101523.34;5055179;27;100703;-36
2022/06/27 04:36:14;;;;;;;2.53;1.45;;;;;;;17.79;71.60;101506.13;5056785;27;96535;-35
2022/06/27 04:38:39;;;;;;;5.75;2.08;;;;;;;17.79;71.22;101517.09;5056742;27;96773;-35
2022/06/27 04:41:05;;;;;;;4.57;2.25;;;;;;;17.85;71.37;101517.63;5055827;27;98931;-35
2022/06/27 04:43:34;;;;;;;3.78;2.00;;;;;;;17.79;71.45;101500.66;5054730;27;100888;-35
2022/06/27 04:46:02;;;;;;;3.90;1.83;;;;;;;17.81;71.36;101517.88;5055343;27;96625;-35
2022/06/27 04:48:29;;;;;;;5.82;1.90;;;;;;;17.76;71.56;101503.66;5054923;27;97284;-35
2022/06/27 04:50:56;;;;;;;4.93;1.90;;;;;;;17.80;71.25;101505.19;5054225;27;100763;-36
2022/06/27 04:53:22;;;;;;;6.60;2.35;;;;;;;17.76;71.43;101506.38;5054739;27;100885;-35
2022/06/27 04:55:47;;;;;;;5.07;1.92;;;;;;;17.79;71.71;101508.00;5056509;27;96593;-35
2022/06/27 04:58:12;;;;;;;4.05;1.92;;;;;;;17.71;71.75;101503.16;5056484;27;96765;-35
2022/06/27 05:00:38;;;;;;;3.72;1.70;;;;;;;17.74;71.88;101516.59;5056071;27;99286;-35
2022/06/27 05:03:04;;;;;;;3.25;1.85;;;;;;;17.73;72.02;101512.13;5055213;27;99275;-35
2022/06/27 05:05:29;;;;;;;3.13;1.88;;;;;;;17.65;72.00;101489.94;5055987;27;96571;-35
2022/06/27 05:07:57;;;;;;;4.22;1.75;;;;;;;17.70;72.05;101516.97;5056508;27;96885;-35
2022/06/27 05:10:22;;;;;;;4.43;2.15;;;;;;;17.62;71.98;101523.06;5054540;27;100975;-35
2022/06/27 05:12:47;;;;;;;3.80;1.92;;;;;;;17.66;72.33;101535.50;5056002;27;97227;-35
2022/06/27 05:15:13;;;;;;;3.80;1.88;;;;;;;17.63;72.39;101541.25;5056277;27;96534;-35
2022/06/27 05:17:39;;;;;;;2.42;1.63;;;;;;;17.69;71.91;101553.59;5056278;27;96903;-35
2022/06/27 05:20:06;;;;;;;4.55;2.10;;;;;;;17.72;71.82;101535.03;5055726;27;99177;-35
2022/06/27 05:22:32;;;;;;;3.72;2.25;;;;;;;17.71;72.01;101536.03;5054676;27;101147;-35
2022/06/27 05:24:58;;;;;;;3.58;2.17;;;;;;;17.71;72.22;101543.34;5054573;27;96576;-35
2022/06/27 05:27:23;;;;;;;5.20;2.55;;;;;;;17.79;72.18;101544.50;5055857;27;96817;-35
2022/06/27 05:29:50;;;;;;;4.32;1.80;;;;;;;17.82;71.69;101540.66;5054942;27;99309;-35
2022/06/27 05:32:15;;;;;;;4.00;2.05;;;;;;;17.80;71.84;101556.31;5055128;27;99346;-35
2022/06/27 05:34:41;;;;;;;5.30;2.70;;;;;;;17.82;72.41;101574.41;5056173;27;96627;-35
2022/06/27 05:37:06;;;;;;;9.52;3.65;;;;;;;17.86;71.93;101564.09;5055962;27;96764;-35
2022/06/27 05:39:33;;;;;;;4.53;2.47;;;;;;;17.89;72.17;101557.50;5053927;27;100804;-35
2022/06/27 05:41:59;;;;;;;8.68;2.90;;;;;;;17.94;71.91;101561.59;5053985;27;98960;-35
2022/06/27 05:44:27;;;;;;;5.10;2.33;;;;;;;17.99;72.34;101574.94;5054427;27;96612;-35
2022/06/27 05:46:52;;;;;;;4.47;2.42;;;;;;;17.99;71.95;101573.03;5054600;27;96767;-35
2022/06/27 05:49:18;;;;;;;5.82;2.53;;;;;;;18.06;71.73;101581.66;5055518;27;97964;-35
2022/06/27 05:51:44;;;;;;;4.63;2.38;;;;;;;18.06;72.37;101584.41;5054375;27;97306;-35
2022/06/27 05:54:10;;;;;;;5.35;2.85;;;;;;;18.07;71.69;101575.19;5055058;27;96519;-35
2022/06/27 05:56:36;;;;;;;5.18;2.40;;;;;;;18.09;71.79;101592.38;5054892;27;96836;-36
2022/06/27 05:59:02;;;;;;;7.30;2.92;;;;;;;18.14;71.75;101617.56;5052292;27;101016;-36
2022/06/27 06:01:28;;;;;;;5.25;2.88;;;;;;;18.17;71.52;101619.19;5053709;27;101185;-35
2022/06/27 06:03:56;;;;;;;5.10;2.42;;;;;;;18.17;71.89;101606.34;5055231;27;96582;-35
2022/06/27 06:06:22;;;;;;;5.22;2.88;;;;;;;18.20;71.82;101607.94;5054013;27;96839;-36
2022/06/27 06:08:48;;;;;;;4.80;2.65;;;;;;;18.20;71.48;101607.94;5053411;27;100674;-36
2022/06/27 06:11:14;;;;;;;6.35;2.67;;;;;;;18.19;71.49;101603.47;5055011;27;99212;-36
2022/06/27 06:13:41;;;;;;;8.48;3.53;;;;;;;18.17;71.54;101603.59;5052640;27;96703;-36
2022/06/27 06:16:06;;;;;;;8.00;3.28;;;;;;;18.17;72.23;101598.09;5053686;27;96908;-36
2022/06/27 06:18:33;;;;;;;6.45;3.17;;;;;;;18.24;71.29;101604.84;5054493;27;98034;-35
2022/06/27 06:20:59;;;;;;;6.57;3.10;;;;;;;18.27;71.11;101600.97;5054929;27;97426;-35
2022/06/27 06:23:25;;;;;;;5.85;2.70;;;;;;;18.25;71.73;101603.81;5055268;27;96738;-35
2022/06/27 06:25:51;;;;;;;8.30;3.05;;;;;;;18.27;71.58;101624.78;5053731;27;96714;-35
2022/06/27 06:28:16;;;;;;;4.28;2.50;;;;;;;18.23;71.54;101635.13;5054921;27;97362;-35
2022/06/27 06:30:42;;;;;;;5.32;2.70;;;;;;;18.27;71.40;101638.50;5054912;27;97910;-35
2022/06/27 06:33:07;;;;;;;6.47;3.05;;;;;;;18.31;71.54;101642.75;5055033;27;96483;-36
2022/06/27 06:35:33;;;;;;;5.65;2.53;;;;;;;18.36;71.40;101654.22;5054025;27;96945;-36
2022/06/27 06:38:00;;;;;;;5.40;3.03;;;;;;;18.34;71.59;101669.91;5054725;27;97811;-35
2022/06/27 06:40:27;;;;;;;4.93;2.75;;;;;;;18.36;71.00;101670.66;5053521;27;100852;-36
2022/06/27 06:42:52;;;;;;;5.88;2.75;;;;;;;18.36;71.22;101662.44;5054240;27;96480;-36
2022/06/27 06:45:18;;;;;;;6.00;2.55;;;;;;;18.38;70.97;101682.38;5054854;27;96809;-36
2022/06/27 06:47:44;;;;;;;10.70;3.05;;;;;;;18.38;71.18;101658.56;5054240;27;97958;-36
2022/06/27 06:50:12;;;;;;;7.43;2.92;;;;;;;18.36;70.84;101632.25;5052455;27;101069;-36
2022/06/27 06:52:39;;;;;;;5.03;2.70;;;;;;;18.41;70.63;101614.41;5053250;27;96734;-35
2022/06/27 06:55:06;;;;;;;6.40;2.80;;;;;;;18.34;70.50;101591.22;5054918;27;96733;-35
2022/06/27 06:57:31;;;;;;;3.85;2.63;;;;;;;18.44;70.01;101591.34;5052937;27;100717;-36
2022/06/27 06:59:56;;;;;;;5.55;2.58;;;;;;;18.46;70.28;101592.09;5054908;27;97186;-35
2022/06/27 07:02:22;;;;;;;5.22;2.35;;;;;;;18.50;70.83;101604.56;5054701;27;96721;-35
2022/06/27 07:04:47;;;;;;;6.53;3.22;;;;;;;18.45;70.52;101580.25;5054586;27;96773;-36
2022/06/27 07:07:13;;;;;;;6.07;3.00;;;;;;;18.50;70.91;101571.63;5053817;27;97984;-35
2022/06/27 07:09:39;;;;;;;5.32;2.70;;;;;;;18.50;70.59;101570.78;5054451;27;98363;-35
2022/06/27 07:12:05;;;;;;;4.68;2.97;;;;;;;18.44;70.64;101563.91;5054821;27;96617;-35
2022/06/27 07:14:31;;;;;;;6.53;2.95;;;;;;;18.45;70.65;101582.13;5054564;27;96794;-35
2022/06/27 07:16:56;;;;;;;5.85;3.20;;;;;;;18.46;71.04;101572.88;5053946;27;99533;-36
2022/06/27 07:19:22;;;;;;;4.63;2.65;;;;;;;18.49;71.06;101569.88;5053956;27;99134;-36
2022/06/27 07:21:47;;;;;;;6.30;2.90;;;;;;;18.58;70.94;101591.06;5054080;27;96665;-36
2022/06/27 07:24:12;;;;;;;7.93;2.53;;;;;;;18.61;70.73;101599.03;5054974;27;96777;-35
2022/06/27 07:26:38;;;;;;;6.50;3.30;;;;;;;18.61;71.50;101601.78;5055001;27;98054;-35
2022/06/27 07:29:04;;;;;;;6.07;3.10;;;;;;;18.62;70.94;101614.50;5057770;27;97759;-35
2022/06/27 07:31:30;;;;;;;6.80;2.88;;;;;;;18.64;70.92;101607.03;5056016;27;96745;-36
2022/06/27 07:33:56;;;;;;;6.00;2.88;;;;;;;18.63;70.70;101599.78;5056140;27;96894;-35
2022/06/27 07:36:25;;;;;;;4.45;2.65;;;;;;;18.66;70.62;101610.53;5057275;27;97953;-35
2022/06/27 07:38:52;;;;;;;5.00;2.67;;;;;;;18.68;70.86;101613.97;5056033;27;101071;-36
2022/06/27 07:41:20;;;;;;;9.45;3.83;;;;;;;18.62;70.54;101621.88;5056272;27;96662;-36
2022/06/27 07:43:47;;;;;;;5.93;2.78;;;;;;;18.63;70.76;101618.13;5056366;27;97026;-36
2022/06/27 07:46:15;;;;;;;4.88;2.90;;;;;;;18.64;70.39;101620.75;5055870;27;100621;-35
2022/06/27 07:48:41;;;;;;;5.72;2.92;;;;;;;18.66;70.73;101621.50;5057229;27;99227;-36
2022/06/27 07:51:07;;;;;;;7.43;2.78;;;;;;;18.68;70.45;101626.84;5055824;27;96834;-35
2022/06/27 07:53:35;;;;;;;10.45;3.13;;;;;;;18.70;70.90;101621.22;5057640;27;96757;-35
2022/06/27 07:56:03;;;;;;;6.28;2.67;;;;;;;18.71;70.75;101631.19;5055219;27;100939;-36
2022/06/27 07:58:38;;;;;;;6.13;3.03;;;;;;;18.78;71.75;101644.34;5055641;27;100745;-36
2022/06/27 08:01:07;;;;;;;7.47;2.47;;;;;;;18.74;71.84;101619.97;5055940;27;96603;-35
2022/06/27 08:03:36;;;;;;;4.93;2.67;;;;;;;18.79;70.34;101623.25;5055667;27;96864;-35
2022/06/27 08:06:09;;;;;;;5.65;3.05;;;;;;;18.81;71.01;101627.59;5055552;27;101128;-35
2022/06/27 08:08:37;;;;;;;7.38;3.40;;;;;;;18.83;70.96;101641.19;5056800;27;99283;-35
2022/06/27 08:11:03;;;;;;;5.63;2.90;;;;;;;18.82;70.72;101633.97;5055838;27;96946;-36
2022/06/27 08:13:31;;;;;;;6.95;2.88;;;;;;;18.89;70.51;101629.69;5056414;27;96901;-35
2022/06/27 08:15:57;;;;;;;6.10;3.03;;;;;;;18.90;70.93;101620.44;5055017;27;100921;-35
2022/06/27 08:18:23;;;;;;;5.10;2.63;;;;;;;18.85;70.70;101606.25;5055419;27;100698;-36
2022/06/27 08:20:49;;;;;;;6.13;3.22;;;;;;;18.91;70.52;101629.56;5056593;27;96464;-35
2022/06/27 08:23:15;;;;;;;9.48;3.28;;;;;;;18.91;70.35;101624.94;5055481;27;96914;-36
2022/06/27 08:25:41;;;;;;;5.40;2.67;;;;;;;19.01;70.50;101616.81;5055345;27;101113;-35
2022/06/27 08:28:09;;;;;;;5.47;3.15;;;;;;;19.11;70.35;101628.72;5055151;27;100533;-35
2022/06/27 08:30:36;;;;;;;5.05;2.47;;;;;;;19.12;69.55;101613.16;5055286;27;96755;-35
2022/06/27 08:33:02;;;;;;;6.93;3.58;;;;;;;19.19;70.02;101620.72;5056834;27;96750;-36
2022/06/27 08:35:28;;;;;;;7.93;3.28;;;;;;;19.19;69.14;101614.38;5056404;27;99440;-35
2022/06/27 08:37:54;;;;;;;5.55;3.20;;;;;;;19.29;69.49;101654.63;5054449;27;100726;-36
2022/06/27 08:40:20;;;;;;;6.43;3.08;;;;;;;19.26;69.34;101641.16;5055185;27;96648;-36
2022/06/27 08:42:47;;;;;;;5.50;3.13;;;;;;;19.30;68.79;101655.50;5055533;27;96844;-35
2022/06/27 08:45:15;;;;;;;5.75;3.22;;;;;;;19.32;69.05;101656.25;5054475;27;100944;-36
2022/06/27 08:47:41;;;;;;;3.97;2.47;;;;;;;19.35;69.20;101674.34;5055851;27;99164;-36
2022/06/27 08:50:11;;;;;;;7.57;2.90;;;;;;;19.33;68.60;101671.75;5056133;27;96803;-35
2022/06/27 08:52:44;;;;;;;7.38;3.08;;;;;;;19.33;68.76;101666.25;5056939;27;96553;-35
2022/06/27 08:55:10;;;;;;;6.82;3.17;;;;;;;19.37;69.50;101670.47;5056235;27;99173;-36
2022/06/27 08:57:36;;;;;;;5.25;2.70;;;;;;;19.40;69.13;101672.97;5056057;27;97785;-35
2022/06/27 09:00:06;;;;;;;5.78;2.97;;;;;;;19.41;69.53;101680.19;5055071;27;96576;-36
2022/06/27 09:02:42;;;;;;;6.78;2.40;;;;;;;19.40;69.17;101681.22;5056699;27;96648;-35
2022/06/27 09:05:30;;;;;;;3.83;2.13;;;;;;;19.39;68.85;101686.81;5056039;27;99632;-35
2022/06/27 09:08:02;;;;;;;6.40;2.15;;;;;;;19.34;69.13;101689.09;5055836;27;99737;-35
2022/06/27 09:10:41;;;;;;;4.45;2.08;;;;;;;19.31;68.78;101682.84;5056097;27;96637;-35
2022/06/27 09:13:14;;;;;;;3.28;1.90;;;;;;;19.36;68.90;101687.97;5055970;27;96766;-36
2022/06/27 09:15:39;;;;;;;4.50;2.05;;;;;;;19.39;68.62;101682.19;5053850;27;101186;-35
2022/06/27 09:18:07;;;;;;;4.65;2.28;;;;;;;19.37;68.14;101662.22;5055787;27;99158;-35
2022/06/27 09:20:49;;;;;;;4.75;2.40;;;;;;;19.43;69.18;101660.84;5054778;27;96668;-36
2022/06/27 09:23:37;;;;;;;3.65;1.70;;;;;;;19.50;68.41;101664.78;5056308;27;96540;-36
2022/06/27 09:26:22;;;;;;;3.42;1.65;;;;;;;19.49;67.88;101660.28;5054429;27;101310;-36
2022/06/27 09:28:59;;;;;;;3.67;1.35;;;;;;;19.53;66.49;101664.53;5055855;27;99183;-35
2022/06/27 09:31:25;;;;;;;3.83;1.73;;;;;;;19.63;66.54;101662.72;5054593;27;96799;-35
2022/06/27 09:34:10;;;;;;;3.95;1.67;;;;;;;19.67;65.75;101669.69;5055643;27;96855;-36
2022/06/27 09:36:47;;;;;;;3.65;1.42;;;;;;;19.77;66.55;101683.53;5053691;27;100996;-36
2022/06/27 09:39:32;;;;;;;4.93;2.05;;;;;;;19.81;66.05;101687.78;5055185;27;99361;-35
2022/06/27 09:42:04;;;;;;;5.20;1.30;;;;;;;19.79;66.09;101684.28;5054588;27;96533;-35
2022/06/27 09:44:35;;;;;;;4.28;1.52;;;;;;;19.78;65.90;101684.41;5054405;27;96967;-35
2022/06/27 09:47:03;;;;;;;7.15;1.63;;;;;;;19.79;66.28;101687.03;5053751;27;100780;-35
2022/06/27 09:49:34;;;;;;;7.15;1.70;;;;;;;19.81;65.45;101684.16;5054800;27;100175;-35
2022/06/27 09:52:04;;;;;;;2.58;1.42;;;;;;;19.83;67.24;101674.78;5053743;27;96784;-35
2022/06/27 09:54:32;;;;;;;4.00;1.70;;;;;;;19.84;66.92;101681.13;5054704;27;96705;-35
2022/06/27 09:56:58;;;;;;;3.50;1.48;;;;;;;19.85;66.31;101678.22;5053630;27;100899;-36
2022/06/27 09:59:24;;;;;;;6.00;2.15;;;;;;;19.87;66.35;101676.22;5053737;27;100815;-35
2022/06/27 10:01:50;;;;;;;4.65;1.55;;;;;;;19.90;66.50;101673.22;5055197;27;96497;-35
2022/06/27 10:04:16;;;;;;;2.88;1.25;;;;;;;19.89;66.66;101663.22;5055576;27;96911;-35
2022/06/27 10:06:42;;;;;;;1.73;0.95;;;;;;;19.91;66.72;101672.19;5053684;27;100894;-35
2022/06/27 10:09:09;;;;;;;1.40;0.88;;;;;;;19.93;65.63;101680.31;5053567;27;101092;-35
2022/06/27 10:11:36;;;;;;;1.25;0.90;;;;;;;;;;5053953;27;96578;-35
2022/06/27 10:14:12;;;;;;;3.10;1.60;;;;;;;19.92;65.91;101684.06;5053917;27;96542;-36
2022/06/27 10:16:51;;;;;;;4.93;1.40;;;;;;;19.87;65.95;101676.22;5053336;27;101092;-36
2022/06/27 10:19:16;;;;;;;1.70;1.10;;;;;;;19.84;66.22;101673.75;5053840;27;100835;-36
2022/06/27 10:21:46;;;;;;;4.22;1.65;;;;;;;19.81;66.63;101671.28;5055229;27;96618;-35
2022/06/27 10:24:30;;;;;;;2.17;1.15;;;;;;;19.86;66.38;101680.00;5053787;27;96916;-36
2022/06/27 10:26:58;;;;;;;4.18;1.73;;;;;;;19.83;66.39;101673.88;5053063;27;99006;-35
2022/06/27 10:29:30;;;;;;;3.00;1.58;;;;;;;19.82;66.63;101669.38;5053377;27;101024;-36
2022/06/27 10:31:59;;;;;;;2.45;1.20;;;;;;;19.81;66.63;101667.66;5055075;27;96567;-35
2022/06/27 10:34:39;;;;;;;4.05;1.63;;;;;;;19.85;67.18;101669.97;5053437;27;97037;-35
2022/06/27 10:37:25;;;;;;;2.83;1.33;;;;;;;19.85;66.61;101667.22;5054597;27;99279;-35
2022/06/27 10:39:52;;;;;;;3.55;1.42;;;;;;;19.85;66.64;101674.59;5053343;27;100924;-36
2022/06/27 10:42:45;;;;;;;3.63;1.55;;;;;;;19.90;66.57;101673.22;5054950;27;96576;-36
2022/06/27 10:45:19;;;;;;;3.85;1.67;;;;;;;19.91;66.07;101672.19;5055309;27;96807;-36
2022/06/27 10:47:48;;;;;;;5.65;1.95;;;;;;;19.89;66.32;101679.72;5054286;27;97487;-35
2022/06/27 10:50:15;;;;;;;5.40;2.47;;;;;;;19.90;66.46;101675.97;5052337;27;100903;-35
2022/06/27 10:52:41;;;;;;;5.18;1.67;;;;;;;19.92;66.40;101671.19;5054682;27;96530;-35
2022/06/27 10:55:24;;;;;;;2.83;1.60;;;;;;;19.92;66.00;101665.69;5054844;27;96833;-35
2022/06/27 10:57:50;;;;;;;3.25;1.23;;;;;;;19.97;65.23;101675.41;5052953;27;101045;-35
2022/06/27 11:00:42;;;;;;;2.08;1.20;;;;;;;19.99;64.78;101673.41;5052984;27;100739;-36
2022/06/27 11:03:10;;;;;;;7.40;1.77;;;;;;;20.02;65.24;101676.78;5056354;27;96589;-36
2022/06/27 11:05:59;;;;;;;2.63;1.75;;;;;;;20.06;64.60;101675.47;5056834;27;96857;-36
2022/06/27 11:08:25;;;;;;;5.30;1.67;;;;;;;20.05;65.19;101668.25;5056602;27;100856;-35
2022/06/27 11:10:51;;;;;;;3.83;1.42;;;;;;;20.04;64.66;101680.22;5056799;27;100739;-36
2022/06/27 11:13:46;;;;;;;3.00;1.38;;;;;;;20.07;65.01;101698.34;5056715;27;96598;-35
2022/06/27 11:16:15;;;;;;;4.18;1.40;;;;;;;20.04;65.49;101688.47;5056780;27;96803;-35
2022/06/27 11:18:42;;;;;;;4.38;1.65;;;;;;;19.94;64.89;101674.66;5057264;27;97930;-35
2022/06/27 11:21:10;;;;;;;3.20;1.42;;;;;;;19.97;65.14;101697.41;5056369;27;100806;-36
2022/06/27 11:24:02;;;;;;;5.55;1.67;;;;;;;19.96;65.00;101684.69;5057962;27;96602;-35
2022/06/27 11:26:33;;;;;;;2.85;1.45;;;;;;;19.96;65.35;101681.94;5058067;27;96567;-35